Main page
METAR-TAF:

METAR-TAF

Airports :

Princess Juliana International Airport

Sint Maarten, Netherlands Antilles

latitude: 18-03N, longitude: 063-07W, elevation: 4 m

Current weather observation

The report was made 22 minutes ago, at 04:00 UTC
Wind 3 kt from the Southeast, varying between East and South
Temperature 28°C
Humidity 84%
Pressure 1016 hPa
Visibility 10 km or more
Few clouds at a height of 1800 ft

METAR: TNCM 150400Z 14003KT 100V180 9999 FEW018 28/25 Q1016

Time: 00:22 (04:22 UTC)

Forecast

The report was made 6 hours and 22 minutes ago, at 22:00 UTC
Forecast valid from 15 at 00 UTC to 15 at 24 UTC
Wind 7 kt from the East/Southeast
Visibility 10 km or more
Scattered clouds at a height of 1600 ft
Temporary
from 15 at 00 UTC to 15 at 12 UTC
Visibility: 6000 m
Broken clouds at a height of 1400 ft
rain showers

TAF: TNCM 142200Z 1500/1524 11007KT 9999 SCT016 TEMPO 1500/1512 6000 SHRA BKN014

Weather observations and forecasts of more than 4000 airports (METAR and TAF reports).

The available stations are represented by yellow and red dots on the map.

Hover mouse over dot to see the name of the station.

Then click to see weather observations and forecasts.

To change the map : click on the green buttons with a black cross to zoom in, on the green button with a dash to zoom out, or on the green arrows for adjacent maps.


METAR-TAF: